sensor_id;sensor_type;location;lat;lon;timestamp;P1;durP1;ratioP1;P2;durP2;ratioP2
60641;SDS011;46837;52.446;-1.930;2024-03-17T00:00:07;32.92;;;9.00;;
60641;SDS011;46837;52.446;-1.930;2024-03-17T00:01:07;29.18;;;9.80;;
60641;SDS011;46837;52.446;-1.930;2024-03-17T00:02:07;30.14;;;9.94;;
60641;SDS011;46837;52.446;-1.930;2024-03-17T00:03:07;31.78;;;7.98;;
60641;SDS011;46837;52.446;-1.930;2024-03-17T00:04:07;27.64;;;8.08;;
60641;SDS011;46837;52.446;-1.930;2024-03-17T00:05:07;27.40;;;9.42;;
60641;SDS011;46837;52.446;-1.930;2024-03-17T00:06:07;23.96;;;7.60;;
60641;SDS011;46837;52.446;-1.930;2024-03-17T00:07:07;25.88;;;7.76;;
60641;SDS011;46837;52.446;-1.930;2024-03-17T00:08:07;26.76;;;7.48;;
60641;SDS011;46837;52.446;-1.930;2024-03-17T00:09:07;23.88;;;6.84;;
60641;SDS011;46837;52.446;-1.930;2024-03-17T00:10:07;34.00;;;8.90;;
60641;SDS011;46837;52.446;-1.930;2024-03-17T00:11:07;30.16;;;8.86;;
60641;SDS011;46837;52.446;-1.930;2024-03-17T00:12:07;31.90;;;8.38;;
60641;SDS011;46837;52.446;-1.930;2024-03-17T00:13:07;27.64;;;8.56;;
60641;SDS011;46837;52.446;-1.930;2024-03-17T00:14:07;25.26;;;8.44;;
60641;SDS011;46837;52.446;-1.930;2024-03-17T00:15:07;23.70;;;8.36;;
60641;SDS011;46837;52.446;-1.930;2024-03-17T00:16:07;22.36;;;8.30;;
60641;SDS011;46837;52.446;-1.930;2024-03-17T00:17:07;32.82;;;9.80;;
60641;SDS011;46837;52.446;-1.930;2024-03-17T00:18:07;35.68;;;10.02;;
60641;SDS011;46837;52.446;-1.930;2024-03-17T00:19:07;30.86;;;7.26;;
60641;SDS011;46837;52.446;-1.930;2024-03-17T00:20:11;28.12;;;7.72;;
60641;SDS011;46837;52.446;-1.930;2024-03-17T00:21:07;19.86;;;7.74;;
60641;SDS011;46837;52.446;-1.930;2024-03-17T00:22:07;22.02;;;9.06;;
60641;SDS011;46837;52.446;-1.930;2024-03-17T00:23:10;34.54;;;8.60;;
60641;SDS011;46837;52.446;-1.930;2024-03-17T00:24:07;32.46;;;9.70;;
60641;SDS011;46837;52.446;-1.930;2024-03-17T00:25:07;35.00;;;8.38;;
60641;SDS011;46837;52.446;-1.930;2024-03-17T00:26:07;31.44;;;9.46;;
60641;SDS011;46837;52.446;-1.930;2024-03-17T00:27:07;35.42;;;9.54;;
60641;SDS011;46837;52.446;-1.930;2024-03-17T00:28:07;30.78;;;8.28;;
60641;SDS011;46837;52.446;-1.930;2024-03-17T00:29:07;27.26;;;7.94;;
60641;SDS011;46837;52.446;-1.930;2024-03-17T00:30:10;37.90;;;7.24;;
60641;SDS011;46837;52.446;-1.930;2024-03-17T00:31:07;20.80;;;6.14;;
60641;SDS011;46837;52.446;-1.930;2024-03-17T00:32:07;30.64;;;8.72;;
60641;SDS011;46837;52.446;-1.930;2024-03-17T00:33:07;23.66;;;6.80;;
60641;SDS011;46837;52.446;-1.930;2024-03-17T00:34:07;28.00;;;7.54;;
60641;SDS011;46837;52.446;-1.930;2024-03-17T00:35:07;19.38;;;7.98;;
60641;SDS011;46837;52.446;-1.930;2024-03-17T00:36:07;29.34;;;7.56;;
60641;SDS011;46837;52.446;-1.930;2024-03-17T00:37:07;24.82;;;7.56;;
60641;SDS011;46837;52.446;-1.930;2024-03-17T00:38:11;32.22;;;7.30;;
60641;SDS011;46837;52.446;-1.930;2024-03-17T00:39:07;27.48;;;7.12;;
60641;SDS011;46837;52.446;-1.930;2024-03-17T00:40:07;34.34;;;9.34;;
60641;SDS011;46837;52.446;-1.930;2024-03-17T00:41:07;26.26;;;7.78;;
60641;SDS011;46837;52.446;-1.930;2024-03-17T00:42:07;21.60;;;7.02;;
60641;SDS011;46837;52.446;-1.930;2024-03-17T00:43:07;32.44;;;6.92;;
60641;SDS011;46837;52.446;-1.930;2024-03-17T00:44:07;30.80;;;7.22;;
60641;SDS011;46837;52.446;-1.930;2024-03-17T00:45:07;28.82;;;7.02;;
60641;SDS011;46837;52.446;-1.930;2024-03-17T00:46:07;23.94;;;6.60;;
60641;SDS011;46837;52.446;-1.930;2024-03-17T00:47:07;28.04;;;6.94;;
60641;SDS011;46837;52.446;-1.930;2024-03-17T00:48:07;22.60;;;7.12;;
60641;SDS011;46837;52.446;-1.930;2024-03-17T00:49:07;20.04;;;6.06;;
60641;SDS011;46837;52.446;-1.930;2024-03-17T00:50:07;31.70;;;8.10;;
60641;SDS011;46837;52.446;-1.930;2024-03-17T00:51:07;33.90;;;7.14;;
60641;SDS011;46837;52.446;-1.930;2024-03-17T00:52:07;16.22;;;5.82;;
60641;SDS011;46837;52.446;-1.930;2024-03-17T00:53:07;19.14;;;7.14;;
60641;SDS011;46837;52.446;-1.930;2024-03-17T00:54:07;26.50;;;6.18;;
60641;SDS011;46837;52.446;-1.930;2024-03-17T00:55:07;29.10;;;6.86;;
60641;SDS011;46837;52.446;-1.930;2024-03-17T00:56:07;27.72;;;6.92;;
60641;SDS011;46837;52.446;-1.930;2024-03-17T00:57:07;24.06;;;7.60;;
60641;SDS011;46837;52.446;-1.930;2024-03-17T00:58:07;23.38;;;6.16;;
60641;SDS011;46837;52.446;-1.930;2024-03-17T00:59:07;28.22;;;7.44;;
60641;SDS011;46837;52.446;-1.930;2024-03-17T01:00:07;32.40;;;7.46;;
60641;SDS011;46837;52.446;-1.930;2024-03-17T01:01:07;21.90;;;7.42;;
60641;SDS011;46837;52.446;-1.930;2024-03-17T01:02:07;33.54;;;7.60;;
60641;SDS011;46837;52.446;-1.930;2024-03-17T01:03:07;29.44;;;7.12;;
60641;SDS011;46837;52.446;-1.930;2024-03-17T01:04:07;31.34;;;9.22;;
60641;SDS011;46837;52.446;-1.930;2024-03-17T01:05:07;18.38;;;7.00;;
60641;SDS011;46837;52.446;-1.930;2024-03-17T01:06:07;27.18;;;6.74;;
60641;SDS011;46837;52.446;-1.930;2024-03-17T01:07:07;25.80;;;8.28;;
60641;SDS011;46837;52.446;-1.930;2024-03-17T01:08:07;30.42;;;6.86;;
60641;SDS011;46837;52.446;-1.930;2024-03-17T01:09:07;26.60;;;7.54;;
60641;SDS011;46837;52.446;-1.930;2024-03-17T01:10:08;34.62;;;8.24;;
60641;SDS011;46837;52.446;-1.930;2024-03-17T01:11:13;31.18;;;7.78;;
60641;SDS011;46837;52.446;-1.930;2024-03-17T01:12:07;30.64;;;7.02;;
60641;SDS011;46837;52.446;-1.930;2024-03-17T01:13:07;31.04;;;6.62;;
60641;SDS011;46837;52.446;-1.930;2024-03-17T01:14:07;27.20;;;6.62;;
60641;SDS011;46837;52.446;-1.930;2024-03-17T01:15:07;24.26;;;6.10;;
60641;SDS011;46837;52.446;-1.930;2024-03-17T01:16:07;31.40;;;8.00;;
60641;SDS011;46837;52.446;-1.930;2024-03-17T01:17:07;30.24;;;7.14;;
60641;SDS011;46837;52.446;-1.930;2024-03-17T01:18:07;23.26;;;7.24;;
60641;SDS011;46837;52.446;-1.930;2024-03-17T01:19:07;34.98;;;7.24;;
60641;SDS011;46837;52.446;-1.930;2024-03-17T01:20:07;31.06;;;6.46;;
60641;SDS011;46837;52.446;-1.930;2024-03-17T01:21:07;27.98;;;6.94;;
60641;SDS011;46837;52.446;-1.930;2024-03-17T01:22:07;42.18;;;8.62;;
60641;SDS011;46837;52.446;-1.930;2024-03-17T01:23:07;30.98;;;6.88;;
60641;SDS011;46837;52.446;-1.930;2024-03-17T01:24:07;23.80;;;6.04;;
60641;SDS011;46837;52.446;-1.930;2024-03-17T01:25:07;32.60;;;6.10;;
60641;SDS011;46837;52.446;-1.930;2024-03-17T01:26:07;21.70;;;6.10;;
60641;SDS011;46837;52.446;-1.930;2024-03-17T01:27:07;34.10;;;6.18;;
60641;SDS011;46837;52.446;-1.930;2024-03-17T01:28:07;23.58;;;6.64;;
60641;SDS011;46837;52.446;-1.930;2024-03-17T01:29:07;28.30;;;7.86;;
60641;SDS011;46837;52.446;-1.930;2024-03-17T01:30:07;26.46;;;7.44;;
60641;SDS011;46837;52.446;-1.930;2024-03-17T01:31:07;32.42;;;6.80;;
60641;SDS011;46837;52.446;-1.930;2024-03-17T01:32:07;24.22;;;6.20;;
60641;SDS011;46837;52.446;-1.930;2024-03-17T01:33:07;25.52;;;5.60;;
60641;SDS011;46837;52.446;-1.930;2024-03-17T01:34:07;29.40;;;5.56;;
60641;SDS011;46837;52.446;-1.930;2024-03-17T01:35:07;25.12;;;5.50;;
60641;SDS011;46837;52.446;-1.930;2024-03-17T01:36:07;37.50;;;7.84;;
60641;SDS011;46837;52.446;-1.930;2024-03-17T01:37:07;19.82;;;5.78;;
60641;SDS011;46837;52.446;-1.930;2024-03-17T01:38:07;20.62;;;5.08;;
60641;SDS011;46837;52.446;-1.930;2024-03-17T01:39:07;16.80;;;5.84;;
60641;SDS011;46837;52.446;-1.930;2024-03-17T01:40:09;22.52;;;5.72;;
60641;SDS011;46837;52.446;-1.930;2024-03-17T01:41:07;33.54;;;4.76;;
60641;SDS011;46837;52.446;-1.930;2024-03-17T01:42:07;21.86;;;4.48;;
60641;SDS011;46837;52.446;-1.930;2024-03-17T01:43:09;26.44;;;6.20;;
60641;SDS011;46837;52.446;-1.930;2024-03-17T01:44:07;28.44;;;5.34;;
60641;SDS011;46837;52.446;-1.930;2024-03-17T01:46:10;23.98;;;4.76;;
60641;SDS011;46837;52.446;-1.930;2024-03-17T01:47:07;28.06;;;5.30;;
60641;SDS011;46837;52.446;-1.930;2024-03-17T01:48:08;24.16;;;5.14;;
60641;SDS011;46837;52.446;-1.930;2024-03-17T01:49:08;26.00;;;5.48;;
60641;SDS011;46837;52.446;-1.930;2024-03-17T01:50:07;26.42;;;5.52;;
60641;SDS011;46837;52.446;-1.930;2024-03-17T01:51:07;25.12;;;5.68;;
60641;SDS011;46837;52.446;-1.930;2024-03-17T01:52:07;23.82;;;5.16;;
60641;SDS011;46837;52.446;-1.930;2024-03-17T01:53:07;34.60;;;6.16;;
60641;SDS011;46837;52.446;-1.930;2024-03-17T01:54:07;27.70;;;5.48;;
60641;SDS011;46837;52.446;-1.930;2024-03-17T01:55:07;29.98;;;5.12;;
60641;SDS011;46837;52.446;-1.930;2024-03-17T01:56:07;26.60;;;5.32;;
60641;SDS011;46837;52.446;-1.930;2024-03-17T01:57:07;16.94;;;5.00;;
60641;SDS011;46837;52.446;-1.930;2024-03-17T01:58:08;26.34;;;5.14;;
60641;SDS011;46837;52.446;-1.930;2024-03-17T01:59:07;28.40;;;5.72;;
60641;SDS011;46837;52.446;-1.930;2024-03-17T02:00:09;26.16;;;5.26;;
60641;SDS011;46837;52.446;-1.930;2024-03-17T02:01:07;16.58;;;4.92;;
60641;SDS011;46837;52.446;-1.930;2024-03-17T02:02:07;26.90;;;6.12;;
60641;SDS011;46837;52.446;-1.930;2024-03-17T02:03:07;30.52;;;5.28;;
60641;SDS011;46837;52.446;-1.930;2024-03-17T02:04:07;24.76;;;5.58;;
60641;SDS011;46837;52.446;-1.930;2024-03-17T02:05:07;28.56;;;5.30;;
60641;SDS011;46837;52.446;-1.930;2024-03-17T02:06:09;25.04;;;6.26;;
60641;SDS011;46837;52.446;-1.930;2024-03-17T02:07:07;26.90;;;5.60;;
60641;SDS011;46837;52.446;-1.930;2024-03-17T02:08:07;21.42;;;5.08;;
60641;SDS011;46837;52.446;-1.930;2024-03-17T02:09:07;26.80;;;5.70;;
60641;SDS011;46837;52.446;-1.930;2024-03-17T02:10:07;12.42;;;4.10;;
60641;SDS011;46837;52.446;-1.930;2024-03-17T02:11:07;27.86;;;4.48;;
60641;SDS011;46837;52.446;-1.930;2024-03-17T02:12:07;22.60;;;3.88;;
60641;SDS011;46837;52.446;-1.930;2024-03-17T02:13:07;13.40;;;3.74;;
60641;SDS011;46837;52.446;-1.930;2024-03-17T02:14:08;26.58;;;4.78;;
60641;SDS011;46837;52.446;-1.930;2024-03-17T02:15:07;25.76;;;5.04;;
60641;SDS011;46837;52.446;-1.930;2024-03-17T02:16:07;21.58;;;4.98;;
60641;SDS011;46837;52.446;-1.930;2024-03-17T02:17:07;21.64;;;4.70;;
60641;SDS011;46837;52.446;-1.930;2024-03-17T02:18:07;31.78;;;6.32;;
60641;SDS011;46837;52.446;-1.930;2024-03-17T02:19:07;30.74;;;5.72;;
60641;SDS011;46837;52.446;-1.930;2024-03-17T02:20:08;25.84;;;5.22;;
60641;SDS011;46837;52.446;-1.930;2024-03-17T02:21:07;24.36;;;4.90;;
60641;SDS011;46837;52.446;-1.930;2024-03-17T02:23:07;43.76;;;6.54;;
60641;SDS011;46837;52.446;-1.930;2024-03-17T02:24:07;28.54;;;5.72;;
60641;SDS011;46837;52.446;-1.930;2024-03-17T02:25:08;26.56;;;4.30;;
60641;SDS011;46837;52.446;-1.930;2024-03-17T02:26:07;22.78;;;4.90;;
60641;SDS011;46837;52.446;-1.930;2024-03-17T02:27:07;20.80;;;5.34;;
60641;SDS011;46837;52.446;-1.930;2024-03-17T02:28:07;40.36;;;5.54;;
60641;SDS011;46837;52.446;-1.930;2024-03-17T02:29:07;27.70;;;7.24;;
60641;SDS011;46837;52.446;-1.930;2024-03-17T02:30:10;22.38;;;5.02;;
60641;SDS011;46837;52.446;-1.930;2024-03-17T02:31:07;37.66;;;8.24;;
60641;SDS011;46837;52.446;-1.930;2024-03-17T02:32:08;26.24;;;5.30;;
60641;SDS011;46837;52.446;-1.930;2024-03-17T02:33:07;25.98;;;5.02;;
60641;SDS011;46837;52.446;-1.930;2024-03-17T02:34:07;34.06;;;6.22;;
60641;SDS011;46837;52.446;-1.930;2024-03-17T02:35:07;26.22;;;5.34;;
60641;SDS011;46837;52.446;-1.930;2024-03-17T02:36:07;22.28;;;5.26;;
60641;SDS011;46837;52.446;-1.930;2024-03-17T02:37:07;14.44;;;4.76;;
60641;SDS011;46837;52.446;-1.930;2024-03-17T02:38:07;25.26;;;5.44;;
60641;SDS011;46837;52.446;-1.930;2024-03-17T02:39:11;18.74;;;4.30;;
60641;SDS011;46837;52.446;-1.930;2024-03-17T02:40:07;32.48;;;5.38;;
60641;SDS011;46837;52.446;-1.930;2024-03-17T02:41:07;25.60;;;5.12;;
60641;SDS011;46837;52.446;-1.930;2024-03-17T02:42:08;27.28;;;5.86;;
60641;SDS011;46837;52.446;-1.930;2024-03-17T02:43:07;22.92;;;5.32;;
60641;SDS011;46837;52.446;-1.930;2024-03-17T02:44:07;32.90;;;6.30;;
60641;SDS011;46837;52.446;-1.930;2024-03-17T02:45:07;23.80;;;7.14;;
60641;SDS011;46837;52.446;-1.930;2024-03-17T02:46:10;28.50;;;5.94;;
60641;SDS011;46837;52.446;-1.930;2024-03-17T02:47:07;21.20;;;5.46;;
60641;SDS011;46837;52.446;-1.930;2024-03-17T02:48:07;24.02;;;4.56;;
60641;SDS011;46837;52.446;-1.930;2024-03-17T02:49:07;19.62;;;4.82;;
60641;SDS011;46837;52.446;-1.930;2024-03-17T02:50:07;26.70;;;5.02;;
60641;SDS011;46837;52.446;-1.930;2024-03-17T02:51:07;28.54;;;5.18;;
60641;SDS011;46837;52.446;-1.930;2024-03-17T02:52:07;27.42;;;5.92;;
60641;SDS011;46837;52.446;-1.930;2024-03-17T02:53:07;21.70;;;5.90;;
60641;SDS011;46837;52.446;-1.930;2024-03-17T02:54:07;23.24;;;6.10;;
60641;SDS011;46837;52.446;-1.930;2024-03-17T02:55:07;27.08;;;4.78;;
60641;SDS011;46837;52.446;-1.930;2024-03-17T02:56:07;25.32;;;4.62;;
60641;SDS011;46837;52.446;-1.930;2024-03-17T02:57:07;21.96;;;4.92;;
60641;SDS011;46837;52.446;-1.930;2024-03-17T02:58:07;25.54;;;5.12;;
60641;SDS011;46837;52.446;-1.930;2024-03-17T02:59:07;20.74;;;4.90;;
60641;SDS011;46837;52.446;-1.930;2024-03-17T03:00:07;17.06;;;5.24;;
60641;SDS011;46837;52.446;-1.930;2024-03-17T03:01:07;17.84;;;4.86;;
60641;SDS011;46837;52.446;-1.930;2024-03-17T03:02:07;17.28;;;4.96;;
60641;SDS011;46837;52.446;-1.930;2024-03-17T03:03:07;14.92;;;3.52;;
60641;SDS011;46837;52.446;-1.930;2024-03-17T03:04:07;19.08;;;3.98;;
60641;SDS011;46837;52.446;-1.930;2024-03-17T03:05:07;23.02;;;5.36;;
60641;SDS011;46837;52.446;-1.930;2024-03-17T03:06:09;14.36;;;4.40;;
60641;SDS011;46837;52.446;-1.930;2024-03-17T03:07:07;13.04;;;3.68;;
60641;SDS011;46837;52.446;-1.930;2024-03-17T03:08:07;27.44;;;4.58;;
60641;SDS011;46837;52.446;-1.930;2024-03-17T03:09:13;20.08;;;3.98;;
60641;SDS011;46837;52.446;-1.930;2024-03-17T03:10:07;19.16;;;5.46;;
60641;SDS011;46837;52.446;-1.930;2024-03-17T03:11:07;17.02;;;4.66;;
60641;SDS011;46837;52.446;-1.930;2024-03-17T03:12:07;15.50;;;2.90;;
60641;SDS011;46837;52.446;-1.930;2024-03-17T03:13:07;11.38;;;3.04;;
60641;SDS011;46837;52.446;-1.930;2024-03-17T03:14:07;13.70;;;3.74;;
60641;SDS011;46837;52.446;-1.930;2024-03-17T03:15:07;22.06;;;4.34;;
60641;SDS011;46837;52.446;-1.930;2024-03-17T03:16:07;20.24;;;3.76;;
60641;SDS011;46837;52.446;-1.930;2024-03-17T03:17:07;32.38;;;3.92;;
60641;SDS011;46837;52.446;-1.930;2024-03-17T03:18:07;13.56;;;4.32;;
60641;SDS011;46837;52.446;-1.930;2024-03-17T03:19:08;13.26;;;4.24;;
60641;SDS011;46837;52.446;-1.930;2024-03-17T03:20:07;9.74;;;3.72;;
60641;SDS011;46837;52.446;-1.930;2024-03-17T03:21:07;20.46;;;3.66;;
60641;SDS011;46837;52.446;-1.930;2024-03-17T03:22:07;18.60;;;3.42;;
60641;SDS011;46837;52.446;-1.930;2024-03-17T03:23:07;11.52;;;2.80;;
60641;SDS011;46837;52.446;-1.930;2024-03-17T03:24:07;16.34;;;2.84;;
60641;SDS011;46837;52.446;-1.930;2024-03-17T03:25:07;18.22;;;2.90;;
60641;SDS011;46837;52.446;-1.930;2024-03-17T03:26:07;18.20;;;3.88;;
60641;SDS011;46837;52.446;-1.930;2024-03-17T03:27:07;12.12;;;3.32;;
60641;SDS011;46837;52.446;-1.930;2024-03-17T03:28:07;12.42;;;2.60;;
60641;SDS011;46837;52.446;-1.930;2024-03-17T03:29:07;16.16;;;2.96;;
60641;SDS011;46837;52.446;-1.930;2024-03-17T03:30:07;8.98;;;1.82;;
60641;SDS011;46837;52.446;-1.930;2024-03-17T03:31:10;9.16;;;2.36;;
60641;SDS011;46837;52.446;-1.930;2024-03-17T03:32:07;12.90;;;2.74;;
60641;SDS011;46837;52.446;-1.930;2024-03-17T03:33:07;13.30;;;2.62;;
60641;SDS011;46837;52.446;-1.930;2024-03-17T03:34:08;12.96;;;3.12;;
60641;SDS011;46837;52.446;-1.930;2024-03-17T03:35:07;10.16;;;2.44;;
60641;SDS011;46837;52.446;-1.930;2024-03-17T03:36:08;9.34;;;2.98;;
60641;SDS011;46837;52.446;-1.930;2024-03-17T03:37:08;13.08;;;3.88;;
60641;SDS011;46837;52.446;-1.930;2024-03-17T03:38:07;9.72;;;2.60;;
60641;SDS011;46837;52.446;-1.930;2024-03-17T03:39:07;16.22;;;2.32;;
60641;SDS011;46837;52.446;-1.930;2024-03-17T03:40:11;9.60;;;2.10;;
60641;SDS011;46837;52.446;-1.930;2024-03-17T03:41:10;10.86;;;1.92;;
60641;SDS011;46837;52.446;-1.930;2024-03-17T03:42:07;6.58;;;2.18;;
60641;SDS011;46837;52.446;-1.930;2024-03-17T03:43:07;10.70;;;2.54;;
60641;SDS011;46837;52.446;-1.930;2024-03-17T03:44:07;15.50;;;3.20;;
60641;SDS011;46837;52.446;-1.930;2024-03-17T03:45:07;14.48;;;2.36;;
60641;SDS011;46837;52.446;-1.930;2024-03-17T03:46:07;6.92;;;1.84;;
60641;SDS011;46837;52.446;-1.930;2024-03-17T03:47:07;3.92;;;1.64;;
60641;SDS011;46837;52.446;-1.930;2024-03-17T03:48:07;8.90;;;1.94;;
60641;SDS011;46837;52.446;-1.930;2024-03-17T03:49:07;4.60;;;1.70;;
60641;SDS011;46837;52.446;-1.930;2024-03-17T03:50:07;7.46;;;1.82;;
60641;SDS011;46837;52.446;-1.930;2024-03-17T03:51:07;12.60;;;2.20;;
60641;SDS011;46837;52.446;-1.930;2024-03-17T03:52:07;10.94;;;1.50;;
60641;SDS011;46837;52.446;-1.930;2024-03-17T03:53:08;7.60;;;1.56;;
60641;SDS011;46837;52.446;-1.930;2024-03-17T03:54:07;4.58;;;1.82;;
60641;SDS011;46837;52.446;-1.930;2024-03-17T03:55:08;6.52;;;1.54;;
60641;SDS011;46837;52.446;-1.930;2024-03-17T03:56:08;6.98;;;1.92;;
60641;SDS011;46837;52.446;-1.930;2024-03-17T03:57:07;9.34;;;3.20;;
60641;SDS011;46837;52.446;-1.930;2024-03-17T03:58:07;10.08;;;1.54;;
60641;SDS011;46837;52.446;-1.930;2024-03-17T03:59:07;8.12;;;1.64;;
60641;SDS011;46837;52.446;-1.930;2024-03-17T04:00:13;6.68;;;1.28;;
60641;SDS011;46837;52.446;-1.930;2024-03-17T04:01:07;9.06;;;2.30;;
60641;SDS011;46837;52.446;-1.930;2024-03-17T04:02:07;10.82;;;2.02;;
60641;SDS011;46837;52.446;-1.930;2024-03-17T04:03:07;5.98;;;1.86;;
60641;SDS011;46837;52.446;-1.930;2024-03-17T04:04:07;9.60;;;2.16;;
60641;SDS011;46837;52.446;-1.930;2024-03-17T04:05:07;9.32;;;1.52;;
60641;SDS011;46837;52.446;-1.930;2024-03-17T04:06:08;6.72;;;1.54;;
60641;SDS011;46837;52.446;-1.930;2024-03-17T04:07:07;6.42;;;1.98;;
60641;SDS011;46837;52.446;-1.930;2024-03-17T04:08:07;2.62;;;1.42;;
60641;SDS011;46837;52.446;-1.930;2024-03-17T04:09:07;13.16;;;2.32;;
60641;SDS011;46837;52.446;-1.930;2024-03-17T04:10:07;8.86;;;2.10;;
60641;SDS011;46837;52.446;-1.930;2024-03-17T04:11:07;7.24;;;2.40;;
60641;SDS011;46837;52.446;-1.930;2024-03-17T04:12:07;6.40;;;1.40;;
60641;SDS011;46837;52.446;-1.930;2024-03-17T04:13:07;7.68;;;2.60;;
60641;SDS011;46837;52.446;-1.930;2024-03-17T04:14:07;3.52;;;1.62;;
60641;SDS011;46837;52.446;-1.930;2024-03-17T04:15:07;5.04;;;1.66;;
60641;SDS011;46837;52.446;-1.930;2024-03-17T04:16:07;7.08;;;1.82;;
60641;SDS011;46837;52.446;-1.930;2024-03-17T04:17:07;11.68;;;2.20;;
60641;SDS011;46837;52.446;-1.930;2024-03-17T04:18:07;7.14;;;1.90;;
60641;SDS011;46837;52.446;-1.930;2024-03-17T04:19:07;6.94;;;1.90;;
60641;SDS011;46837;52.446;-1.930;2024-03-17T04:20:08;6.90;;;1.44;;
60641;SDS011;46837;52.446;-1.930;2024-03-17T04:21:07;7.66;;;1.68;;
60641;SDS011;46837;52.446;-1.930;2024-03-17T04:22:07;4.66;;;1.44;;
60641;SDS011;46837;52.446;-1.930;2024-03-17T04:23:07;6.80;;;1.84;;
60641;SDS011;46837;52.446;-1.930;2024-03-17T04:24:07;4.68;;;1.64;;
60641;SDS011;46837;52.446;-1.930;2024-03-17T04:25:07;3.48;;;1.36;;
60641;SDS011;46837;52.446;-1.930;2024-03-17T04:26:08;7.48;;;2.28;;
60641;SDS011;46837;52.446;-1.930;2024-03-17T04:27:07;9.84;;;2.20;;
60641;SDS011;46837;52.446;-1.930;2024-03-17T04:28:07;6.22;;;1.42;;
60641;SDS011;46837;52.446;-1.930;2024-03-17T04:29:08;5.66;;;1.78;;
60641;SDS011;46837;52.446;-1.930;2024-03-17T04:30:08;5.56;;;1.66;;
60641;SDS011;46837;52.446;-1.930;2024-03-17T04:31:07;7.66;;;1.90;;
60641;SDS011;46837;52.446;-1.930;2024-03-17T04:32:07;6.32;;;1.94;;
60641;SDS011;46837;52.446;-1.930;2024-03-17T04:33:07;6.56;;;1.76;;
60641;SDS011;46837;52.446;-1.930;2024-03-17T04:34:07;5.36;;;1.58;;
60641;SDS011;46837;52.446;-1.930;2024-03-17T04:35:07;5.50;;;2.46;;
60641;SDS011;46837;52.446;-1.930;2024-03-17T04:36:07;4.68;;;1.84;;
60641;SDS011;46837;52.446;-1.930;2024-03-17T04:37:07;5.66;;;1.88;;
60641;SDS011;46837;52.446;-1.930;2024-03-17T04:38:07;3.64;;;1.52;;
60641;SDS011;46837;52.446;-1.930;2024-03-17T04:39:09;10.00;;;2.32;;
60641;SDS011;46837;52.446;-1.930;2024-03-17T04:40:10;3.56;;;1.38;;
60641;SDS011;46837;52.446;-1.930;2024-03-17T04:41:07;7.06;;;1.52;;
60641;SDS011;46837;52.446;-1.930;2024-03-17T04:42:07;6.00;;;1.88;;
60641;SDS011;46837;52.446;-1.930;2024-03-17T04:43:07;6.34;;;1.76;;
60641;SDS011;46837;52.446;-1.930;2024-03-17T04:44:07;3.98;;;1.50;;
60641;SDS011;46837;52.446;-1.930;2024-03-17T04:45:07;4.46;;;1.76;;
60641;SDS011;46837;52.446;-1.930;2024-03-17T04:46:07;8.00;;;2.14;;
60641;SDS011;46837;52.446;-1.930;2024-03-17T04:47:07;2.52;;;1.62;;
60641;SDS011;46837;52.446;-1.930;2024-03-17T04:48:07;5.40;;;2.10;;
60641;SDS011;46837;52.446;-1.930;2024-03-17T04:49:07;7.60;;;1.60;;
60641;SDS011;46837;52.446;-1.930;2024-03-17T04:50:07;7.14;;;2.40;;
60641;SDS011;46837;52.446;-1.930;2024-03-17T04:51:07;2.66;;;1.44;;
60641;SDS011;46837;52.446;-1.930;2024-03-17T04:52:07;3.24;;;1.66;;
60641;SDS011;46837;52.446;-1.930;2024-03-17T04:53:07;4.86;;;1.60;;
60641;SDS011;46837;52.446;-1.930;2024-03-17T04:54:07;5.26;;;1.92;;
60641;SDS011;46837;52.446;-1.930;2024-03-17T04:55:07;5.98;;;1.64;;
60641;SDS011;46837;52.446;-1.930;2024-03-17T04:56:07;11.14;;;2.20;;
60641;SDS011;46837;52.446;-1.930;2024-03-17T04:57:07;3.82;;;2.04;;
60641;SDS011;46837;52.446;-1.930;2024-03-17T04:58:07;7.16;;;1.94;;
60641;SDS011;46837;52.446;-1.930;2024-03-17T04:59:07;5.84;;;2.00;;
60641;SDS011;46837;52.446;-1.930;2024-03-17T05:00:08;6.90;;;2.62;;
60641;SDS011;46837;52.446;-1.930;2024-03-17T05:01:07;3.32;;;1.76;;
60641;SDS011;46837;52.446;-1.930;2024-03-17T05:02:07;6.76;;;2.20;;
60641;SDS011;46837;52.446;-1.930;2024-03-17T05:03:07;8.02;;;2.88;;
60641;SDS011;46837;52.446;-1.930;2024-03-17T05:04:07;5.16;;;1.80;;
60641;SDS011;46837;52.446;-1.930;2024-03-17T05:05:07;4.00;;;1.94;;
60641;SDS011;46837;52.446;-1.930;2024-03-17T05:06:07;7.34;;;1.76;;
60641;SDS011;46837;52.446;-1.930;2024-03-17T05:07:07;3.70;;;1.44;;
60641;SDS011;46837;52.446;-1.930;2024-03-17T05:08:07;5.40;;;1.70;;
60641;SDS011;46837;52.446;-1.930;2024-03-17T05:09:07;4.34;;;2.08;;
60641;SDS011;46837;52.446;-1.930;2024-03-17T05:10:07;5.36;;;1.92;;
60641;SDS011;46837;52.446;-1.930;2024-03-17T05:11:07;4.36;;;1.58;;
60641;SDS011;46837;52.446;-1.930;2024-03-17T05:12:07;5.36;;;1.60;;
60641;SDS011;46837;52.446;-1.930;2024-03-17T05:13:07;2.44;;;1.60;;
60641;SDS011;46837;52.446;-1.930;2024-03-17T05:14:07;3.98;;;1.68;;
60641;SDS011;46837;52.446;-1.930;2024-03-17T05:15:07;6.30;;;1.10;;
60641;SDS011;46837;52.446;-1.930;2024-03-17T05:16:07;8.04;;;1.50;;
60641;SDS011;46837;52.446;-1.930;2024-03-17T05:17:07;6.24;;;1.72;;
60641;SDS011;46837;52.446;-1.930;2024-03-17T05:18:07;6.70;;;1.50;;
60641;SDS011;46837;52.446;-1.930;2024-03-17T05:19:07;4.46;;;2.10;;
60641;SDS011;46837;52.446;-1.930;2024-03-17T05:20:07;5.96;;;2.78;;
60641;SDS011;46837;52.446;-1.930;2024-03-17T05:21:07;5.92;;;2.48;;
60641;SDS011;46837;52.446;-1.930;2024-03-17T05:22:07;4.20;;;1.72;;
60641;SDS011;46837;52.446;-1.930;2024-03-17T05:23:07;2.52;;;1.72;;
60641;SDS011;46837;52.446;-1.930;2024-03-17T05:24:07;3.30;;;1.76;;
60641;SDS011;46837;52.446;-1.930;2024-03-17T05:25:07;2.42;;;1.98;;
60641;SDS011;46837;52.446;-1.930;2024-03-17T05:26:07;5.10;;;2.12;;
60641;SDS011;46837;52.446;-1.930;2024-03-17T05:27:07;9.44;;;2.38;;
60641;SDS011;46837;52.446;-1.930;2024-03-17T05:28:07;4.72;;;1.74;;
60641;SDS011;46837;52.446;-1.930;2024-03-17T05:29:07;5.02;;;2.24;;
60641;SDS011;46837;52.446;-1.930;2024-03-17T05:30:07;5.60;;;2.18;;
60641;SDS011;46837;52.446;-1.930;2024-03-17T05:31:07;6.62;;;2.40;;
60641;SDS011;46837;52.446;-1.930;2024-03-17T05:32:07;5.84;;;2.00;;
60641;SDS011;46837;52.446;-1.930;2024-03-17T05:33:07;4.02;;;1.64;;
60641;SDS011;46837;52.446;-1.930;2024-03-17T05:34:07;6.16;;;1.70;;
60641;SDS011;46837;52.446;-1.930;2024-03-17T05:35:07;6.82;;;1.60;;
60641;SDS011;46837;52.446;-1.930;2024-03-17T05:36:07;9.66;;;2.86;;
60641;SDS011;46837;52.446;-1.930;2024-03-17T05:37:07;5.68;;;1.64;;
60641;SDS011;46837;52.446;-1.930;2024-03-17T05:38:07;4.76;;;1.52;;
60641;SDS011;46837;52.446;-1.930;2024-03-17T05:39:07;3.38;;;1.52;;
60641;SDS011;46837;52.446;-1.930;2024-03-17T05:40:07;5.22;;;2.18;;
60641;SDS011;46837;52.446;-1.930;2024-03-17T05:41:07;2.72;;;1.66;;
60641;SDS011;46837;52.446;-1.930;2024-03-17T05:42:07;2.48;;;1.70;;
60641;SDS011;46837;52.446;-1.930;2024-03-17T05:43:07;3.18;;;1.56;;
60641;SDS011;46837;52.446;-1.930;2024-03-17T05:44:07;3.30;;;1.64;;
60641;SDS011;46837;52.446;-1.930;2024-03-17T05:45:07;5.68;;;1.94;;
60641;SDS011;46837;52.446;-1.930;2024-03-17T05:46:08;3.78;;;1.66;;
60641;SDS011;46837;52.446;-1.930;2024-03-17T05:47:09;2.02;;;1.36;;
60641;SDS011;46837;52.446;-1.930;2024-03-17T05:48:07;3.80;;;1.82;;
60641;SDS011;46837;52.446;-1.930;2024-03-17T05:49:07;3.22;;;1.32;;
60641;SDS011;46837;52.446;-1.930;2024-03-17T05:50:07;3.64;;;1.24;;
60641;SDS011;46837;52.446;-1.930;2024-03-17T05:51:10;4.50;;;1.76;;
60641;SDS011;46837;52.446;-1.930;2024-03-17T05:52:07;4.50;;;1.60;;
60641;SDS011;46837;52.446;-1.930;2024-03-17T05:53:07;3.72;;;1.76;;
60641;SDS011;46837;52.446;-1.930;2024-03-17T05:54:07;4.20;;;2.22;;